SWR161 RJAA-LSZH
Flight info
| Callsign | SWR161 |
|---|---|
| Flight time | N/A |
| Altitude | 31000 |
| Route | GULBO Y808 NOLAX Y812 ADNAP OTR5 KALNA 4345N16000E 4537N16535E 4600N16604E/N0496F320 4546N16558E/N0498F310 DCT WALLT/N0492F330 DCT EPLOS DCT JUJXI DCT 70N166W 75N158W/N0495F350 DCT NAMWE DCT PELRI/M084F350 DCT 80N018W 75N007W/M084F370 70N000W/N0495F370 DCT KOTIV DCT TUXIL DCT OMIMA DCT ASBON DCT TUSUK DCT LAMGO/N0482F270 T721 RILAX |
| Aircraft | B77W/H-SDE1E2E3FGHIJ2J3J4J5M1RWXY/LB1D1 |
Departure
| Time | 2026-05-06 00:04 |
|---|---|
| Airport | Narita International Airport (RJAA) |
Arrival
| Time | N/A |
|---|---|
| Airport | Zürich Airport (LSZH) |
| Time | Latitude | Longitude | Altitude | Speed | Heading |
|---|---|---|---|---|---|
| 2026-05-05 23:08 | 35.75996 | 140.38503 | 149 ft | 0 kts | 58° |
| 2026-05-05 23:53 | 35.75992 | 140.38495 | 148 ft | 2 kts | 61° |
| 2026-05-05 23:53 | 35.75984 | 140.38478 | 148 ft | 2 kts | 59° |
| 2026-05-05 23:53 | 35.75976 | 140.38461 | 148 ft | 2 kts | 59° |
| 2026-05-05 23:53 | 35.75969 | 140.38445 | 148 ft | 2 kts | 59° |
| 2026-05-05 23:54 | 35.75961 | 140.38429 | 148 ft | 2 kts | 54° |
| 2026-05-05 23:54 | 35.75953 | 140.38419 | 148 ft | 2 kts | 24° |
| 2026-05-05 23:54 | 35.75942 | 140.38415 | 148 ft | 2 kts | 354° |
| 2026-05-05 23:54 | 35.75929 | 140.38419 | 148 ft | 2 kts | 329° |
| 2026-05-05 23:55 | 35.75916 | 140.38429 | 148 ft | 2 kts | 329° |
| 2026-05-05 23:55 | 35.75903 | 140.38439 | 148 ft | 2 kts | 329° |
| 2026-05-05 23:55 | 35.75891 | 140.38447 | 148 ft | 0 kts | 329° |
| 2026-05-05 23:58 | 35.75892 | 140.38447 | 148 ft | 1 kts | 329° |
| 2026-05-05 23:58 | 35.75910 | 140.38434 | 148 ft | 6 kts | 330° |
| 2026-05-05 23:58 | 35.75983 | 140.38382 | 148 ft | 16 kts | 330° |
| 2026-05-05 23:59 | 35.76075 | 140.38315 | 148 ft | 15 kts | 330° |
| 2026-05-05 23:59 | 35.76161 | 140.38253 | 148 ft | 14 kts | 329° |
| 2026-05-05 23:59 | 35.76239 | 140.38190 | 148 ft | 13 kts | 310° |
| 2026-05-05 23:59 | 35.76254 | 140.38086 | 148 ft | 13 kts | 298° |
| 2026-05-06 00:00 | 35.76321 | 140.38021 | 148 ft | 12 kts | 329° |
| 2026-05-06 00:00 | 35.76394 | 140.37968 | 148 ft | 12 kts | 330° |
| 2026-05-06 00:00 | 35.76497 | 140.37898 | 148 ft | 23 kts | 335° |
| 2026-05-06 00:00 | 35.76638 | 140.37796 | 148 ft | 23 kts | 327° |
| 2026-05-06 00:01 | 35.76770 | 140.37697 | 148 ft | 22 kts | 330° |
| 2026-05-06 00:01 | 35.76855 | 140.37567 | 148 ft | 21 kts | 268° |
| 2026-05-06 00:01 | 35.76947 | 140.37441 | 148 ft | 21 kts | 329° |
| 2026-05-06 00:01 | 35.77068 | 140.37354 | 148 ft | 20 kts | 330° |
| 2026-05-06 00:02 | 35.77185 | 140.37271 | 148 ft | 19 kts | 329° |
| 2026-05-06 00:02 | 35.77297 | 140.37190 | 148 ft | 18 kts | 330° |
| 2026-05-06 00:02 | 35.77404 | 140.37113 | 148 ft | 17 kts | 330° |
| 2026-05-06 00:02 | 35.77490 | 140.37021 | 148 ft | 16 kts | 289° |
| 2026-05-06 00:03 | 35.77454 | 140.36895 | 148 ft | 16 kts | 235° |
| 2026-05-06 00:03 | 35.77357 | 140.36890 | 148 ft | 15 kts | 154° |
| 2026-05-06 00:03 | 35.77258 | 140.36961 | 148 ft | 23 kts | 149° |
| 2026-05-06 00:03 | 35.76908 | 140.37210 | 148 ft | 96 kts | 149° |
| 2026-05-06 00:04 | 35.76134 | 140.37771 | 149 ft | 164 kts | 149° |
| 2026-05-06 00:04 | 35.75002 | 140.38590 | 256 ft | 206 kts | 150° |
| 2026-05-06 00:04 | 35.73719 | 140.39512 | 846 ft | 219 kts | 150° |
| 2026-05-06 00:04 | 35.72424 | 140.40451 | 1914 ft | 213 kts | 151° |
| 2026-05-06 00:05 | 35.69717 | 140.42408 | 2894 ft | 240 kts | 152° |
| 2026-05-06 00:05 | 35.68249 | 140.43467 | 3403 ft | 248 kts | 152° |
| 2026-05-06 00:05 | 35.66767 | 140.44535 | 4072 ft | 250 kts | 153° |
| 2026-05-06 00:06 | 35.65270 | 140.45612 | 4836 ft | 251 kts | 153° |
| 2026-05-06 00:06 | 35.63756 | 140.46701 | 5503 ft | 253 kts | 153° |
| 2026-05-06 00:06 | 35.62222 | 140.47804 | 6108 ft | 257 kts | 153° |
| 2026-05-06 00:06 | 35.60666 | 140.48922 | 6729 ft | 260 kts | 153° |
| 2026-05-06 00:07 | 35.59095 | 140.50051 | 7359 ft | 263 kts | 152° |
| 2026-05-06 00:07 | 35.57508 | 140.51195 | 7970 ft | 266 kts | 152° |
| 2026-05-06 00:07 | 35.55904 | 140.52350 | 8560 ft | 269 kts | 152° |
| 2026-05-06 00:07 | 35.54299 | 140.53503 | 9130 ft | 272 kts | 152° |
| 2026-05-06 00:08 | 35.52657 | 140.54681 | 9696 ft | 275 kts | 152° |
| 2026-05-06 00:08 | 35.50996 | 140.55872 | 10249 ft | 278 kts | 152° |
| 2026-05-06 00:08 | 35.49320 | 140.57072 | 10793 ft | 281 kts | 152° |
| 2026-05-06 00:08 | 35.47590 | 140.58311 | 11085 ft | 295 kts | 152° |
| 2026-05-06 00:09 | 35.45773 | 140.59611 | 11282 ft | 311 kts | 152° |
| 2026-05-06 00:09 | 35.43934 | 140.61171 | 11407 ft | 331 kts | 142° |
| 2026-05-06 00:09 | 35.42246 | 140.63213 | 11578 ft | 350 kts | 134° |
| 2026-05-06 00:09 | 35.40679 | 140.65570 | 11887 ft | 364 kts | 130° |
| 2026-05-06 00:10 | 35.39172 | 140.68115 | 12306 ft | 373 kts | 127° |
| 2026-05-06 00:10 | 35.37713 | 140.70786 | 12811 ft | 380 kts | 126° |
| 2026-05-06 00:10 | 35.36274 | 140.73504 | 13357 ft | 384 kts | 126° |
| 2026-05-06 00:10 | 35.34808 | 140.76213 | 13898 ft | 388 kts | 126° |
| 2026-05-06 00:11 | 35.33291 | 140.78965 | 14467 ft | 391 kts | 127° |
| 2026-05-06 00:11 | 35.31755 | 140.81718 | 15049 ft | 393 kts | 127° |
| 2026-05-06 00:11 | 35.30205 | 140.84487 | 15613 ft | 396 kts | 127° |
| 2026-05-06 00:11 | 35.28637 | 140.87285 | 16161 ft | 399 kts | 127° |
| 2026-05-06 00:12 | 35.27064 | 140.90091 | 16693 ft | 402 kts | 127° |
| 2026-05-06 00:12 | 35.25476 | 140.92922 | 17209 ft | 405 kts | 127° |
| 2026-05-06 00:12 | 35.23880 | 140.95765 | 17716 ft | 407 kts | 127° |
| 2026-05-06 00:12 | 35.22427 | 140.98710 | 18111 ft | 414 kts | 118° |